Time;durP1;ratioP1;P1;durP2;ratioP2;P2;SDS_P1;SDS_P2;PMS_P1;PMS_P2;Temp;Humidity;BMP_temperature;BMP_pressure;BME280_temperature;BME280_humidity;BME280_pressure;Samples;Min_cycle;Max_cycle;Signal;HPM_P1;HPM_P2
2023/12/07 00:02:50;;;;;;;44.00;27.20;;;4.70;99.90;;;;;;10417118;28;20220;-63
2023/12/07 00:07:54;;;;;;;54.73;28.37;;;4.70;99.90;;;;;;10457719;28;20207;-61
2023/12/07 00:12:57;;;;;;;45.77;29.47;;;4.70;99.90;;;;;;10417348;28;20591;-61
2023/12/07 00:18:03;;;;;;;62.50;28.77;;;4.70;99.90;;;;;;10463491;28;20598;-63
2023/12/07 00:23:06;;;;;;;61.20;27.70;;;4.70;99.90;;;;;;10454677;28;20219;-62
2023/12/07 00:28:10;;;;;;;43.67;28.37;;;4.70;99.90;;;;;;10403158;28;20275;-63
2023/12/07 00:33:16;;;;;;;45.83;28.90;;;4.70;99.90;;;;;;10447987;28;20589;-63
2023/12/07 00:38:20;;;;;;;48.37;29.20;;;4.80;99.90;;;;;;10447266;28;20632;-62
2023/12/07 00:43:24;;;;;;;43.77;29.47;;;4.80;99.90;;;;;;10434077;28;20226;-63
2023/12/07 00:48:30;;;;;;;46.13;29.10;;;4.80;99.90;;;;;;10450635;28;20659;-63
2023/12/07 00:53:34;;;;;;;45.70;28.00;;;4.80;99.90;;;;;;10446342;28;20270;-63
2023/12/07 00:58:38;;;;;;;49.77;30.57;;;4.90;99.90;;;;;;10441421;28;20224;-63
2023/12/07 01:03:43;;;;;;;43.83;29.60;;;4.80;99.90;;;;;;10420989;28;20287;-62
2023/12/07 01:08:47;;;;;;;47.43;28.67;;;4.90;99.90;;;;;;10431065;28;20209;-63
2023/12/07 01:13:50;;;;;;;46.40;29.00;;;4.90;99.90;;;;;;10450522;28;20275;-62
2023/12/07 01:18:55;;;;;;;45.00;28.70;;;4.90;99.90;;;;;;10440838;28;20221;-62
2023/12/07 01:23:59;;;;;;;48.63;29.53;;;4.90;99.90;;;;;;10432576;28;20637;-63
2023/12/07 01:29:18;;;;;;;45.97;31.50;;;5.00;99.90;;;;;;10454302;28;20206;-63
2023/12/07 01:34:23;;;;;;;47.20;30.60;;;5.00;99.90;;;;;;10428654;28;20226;-63
2023/12/07 01:39:27;;;;;;;45.50;30.40;;;5.00;99.90;;;;;;10452402;28;20263;-61
2023/12/07 01:44:30;;;;;;;48.23;30.10;;;5.00;99.90;;;;;;10452607;28;20214;-62
2023/12/07 01:49:35;;;;;;;49.03;33.47;;;5.00;99.90;;;;;;10421179;28;20222;-62
2023/12/07 01:54:40;;;;;;;46.07;31.73;;;5.10;99.90;;;;;;10452548;28;20267;-61
2023/12/07 01:59:43;;;;;;;55.47;34.07;;;5.00;99.90;;;;;;10413458;28;20656;-62
2023/12/07 02:04:48;;;;;;;48.30;32.83;;;5.00;99.90;;;;;;10447103;28;20895;-64
2023/12/07 02:09:53;;;;;;;56.10;34.00;;;5.00;99.90;;;;;;10397052;28;20204;-61
2023/12/07 02:14:57;;;;;;;50.17;32.93;;;5.00;99.90;;;;;;10442981;28;20244;-62
2023/12/07 02:20:13;;;;;;;55.03;32.97;;;5.00;99.90;;;;;;10370086;28;20223;-64
2023/12/07 02:25:20;;;;;;;53.30;33.80;;;5.00;99.90;;;;;;10373433;28;20192;-63
2023/12/07 02:30:25;;;;;;;52.10;33.40;;;5.00;99.90;;;;;;10444866;28;20335;-63
2023/12/07 02:35:30;;;;;;;51.40;32.43;;;5.00;99.90;;;;;;10442243;28;20358;-62
2023/12/07 02:40:35;;;;;;;50.73;32.13;;;5.00;99.90;;;;;;10407573;28;20221;-63
2023/12/07 02:45:40;;;;;;;52.90;31.90;;;5.00;99.90;;;;;;10443547;28;20718;-63
2023/12/07 02:50:44;;;;;;;46.93;29.87;;;5.10;99.90;;;;;;10442661;28;20224;-63
2023/12/07 02:55:47;;;;;;;52.87;31.53;;;5.10;99.90;;;;;;10444454;28;20588;-62
2023/12/07 03:00:53;;;;;;;60.60;33.30;;;5.10;99.90;;;;;;10436480;28;20241;-61
2023/12/07 03:05:58;;;;;;;54.83;32.70;;;5.00;99.90;;;;;;10426814;28;20200;-61
2023/12/07 03:11:01;;;;;;;51.83;30.87;;;5.00;99.90;;;;;;10441149;28;20280;-62
2023/12/07 03:16:15;;;;;;;52.20;30.73;;;5.00;99.90;;;;;;10423431;28;20212;-62
2023/12/07 03:21:19;;;;;;;49.43;31.00;;;5.00;99.90;;;;;;10414976;28;20228;-62
2023/12/07 03:26:23;;;;;;;49.40;30.50;;;5.00;99.90;;;;;;10439736;28;20205;-64
2023/12/07 03:31:28;;;;;;;51.43;32.00;;;5.00;99.90;;;;;;10417374;28;20248;-64
2023/12/07 03:36:35;;;;;;;51.97;31.57;;;5.10;99.90;;;;;;10436813;28;20221;-63
2023/12/07 03:41:38;;;;;;;49.83;27.60;;;5.10;99.90;;;;;;10416837;28;20623;-62
2023/12/07 03:46:43;;;;;;;46.10;28.10;;;5.00;99.90;;;;;;10444270;28;20210;-62
2023/12/07 03:51:47;;;;;;;49.10;29.30;;;5.00;99.90;;;;;;10442834;28;20268;-62
2023/12/07 03:56:50;;;;;;;50.80;29.80;;;5.00;99.90;;;;;;10446099;28;20270;-62
2023/12/07 04:01:55;;;;;;;46.47;27.93;;;5.00;99.90;;;;;;10444222;28;20228;-64
2023/12/07 04:06:59;;;;;;;46.73;28.33;;;5.00;99.90;;;;;;10444708;28;20212;-62
2023/12/07 04:12:03;;;;;;;52.80;28.13;;;5.00;99.90;;;;;;10407914;28;20244;-61
2023/12/07 04:17:08;;;;;;;47.23;27.50;;;5.00;99.90;;;;;;10439721;28;20278;-61
2023/12/07 04:22:11;;;;;;;46.00;27.13;;;4.90;99.90;;;;;;10444828;28;20697;-62
2023/12/07 04:27:15;;;;;;;44.77;27.47;;;4.90;99.90;;;;;;10416262;28;20201;-63
2023/12/07 04:32:23;;;;;;;47.43;27.33;;;4.90;99.90;;;;;;10430249;28;20294;-60
2023/12/07 04:37:29;;;;;;;42.20;24.80;;;4.90;99.90;;;;;;10439620;28;20286;-62
2023/12/07 04:42:33;;;;;;;41.50;25.03;;;4.90;99.90;;;;;;10454654;28;20778;-62
2023/12/07 04:47:38;;;;;;;40.97;25.27;;;5.00;99.90;;;;;;10431528;28;20206;-65
2023/12/07 04:52:42;;;;;;;42.10;25.67;;;5.00;99.90;;;;;;10453431;28;20218;-64
2023/12/07 04:57:46;;;;;;;41.03;25.23;;;5.00;99.90;;;;;;10449717;28;20692;-64
2023/12/07 05:02:52;;;;;;;38.97;23.67;;;5.00;99.90;;;;;;10459979;28;20221;-64
2023/12/07 05:07:58;;;;;;;43.23;25.17;;;5.10;99.90;;;;;;10453014;28;20224;-64
2023/12/07 05:13:07;;;;;;;40.30;25.37;;;5.10;99.90;;;;;;10434190;28;20268;-64
2023/12/07 05:18:12;;;;;;;42.23;24.17;;;5.10;99.90;;;;;;10435643;28;20225;-64
2023/12/07 05:23:16;;;;;;;36.03;22.90;;;5.20;99.90;;;;;;10452449;28;20245;-64
2023/12/07 05:28:19;;;;;;;34.47;22.03;;;5.20;99.90;;;;;;10452471;28;20220;-64
2023/12/07 05:33:24;;;;;;;38.67;24.47;;;5.20;99.90;;;;;;10446868;28;20279;-64
2023/12/07 05:38:28;;;;;;;35.97;22.53;;;5.20;99.90;;;;;;10448469;28;20221;-64
2023/12/07 05:43:33;;;;;;;34.57;22.60;;;5.30;99.90;;;;;;10452815;28;20293;-65
2023/12/07 05:48:39;;;;;;;37.20;22.93;;;5.30;99.90;;;;;;10419558;28;20198;-65
2023/12/07 05:53:43;;;;;;;33.70;22.30;;;5.30;99.90;;;;;;10453110;28;20264;-64
2023/12/07 05:58:47;;;;;;;36.80;22.53;;;5.30;99.90;;;;;;10434873;28;20217;-67
2023/12/07 06:03:56;;;;;;;42.77;27.20;;;5.40;99.90;;;;;;10444844;28;20277;-64
2023/12/07 06:08:59;;;;;;;44.57;29.47;;;5.40;99.90;;;;;;10450977;28;20714;-64
2023/12/07 06:14:06;;;;;;;69.43;43.47;;;5.40;99.90;;;;;;10448821;28;20248;-65
2023/12/07 06:19:11;;;;;;;37.23;24.60;;;5.40;99.90;;;;;;10442259;28;20276;-62
2023/12/07 06:24:15;;;;;;;38.80;24.77;;;5.50;99.90;;;;;;10444147;28;20276;-63
2023/12/07 06:29:19;;;;;;;36.93;24.10;;;5.50;99.90;;;;;;10450616;28;20202;-63
2023/12/07 06:34:24;;;;;;;37.07;24.13;;;5.50;99.90;;;;;;10448658;28;20221;-64
2023/12/07 06:39:28;;;;;;;34.57;22.83;;;5.50;99.90;;;;;;10449268;28;20735;-63
2023/12/07 06:44:31;;;;;;;33.67;23.53;;;5.50;99.90;;;;;;10447047;28;20343;-63
2023/12/07 06:49:36;;;;;;;33.77;21.77;;;5.50;99.90;;;;;;10447541;28;20250;-64
2023/12/07 06:54:54;;;;;;;36.40;24.50;;;5.40;99.90;;;;;;10441696;28;20229;-61
2023/12/07 06:59:58;;;;;;;36.07;23.53;;;5.40;99.90;;;;;;10451757;28;20269;-61
2023/12/07 07:05:03;;;;;;;37.03;23.23;;;5.40;99.90;;;;;;10453369;28;20225;-62
2023/12/07 07:10:09;;;;;;;33.23;23.40;;;5.30;99.90;;;;;;10456632;28;20217;-62
2023/12/07 07:15:13;;;;;;;33.80;23.40;;;5.20;99.90;;;;;;10443982;28;20218;-61
2023/12/07 07:20:18;;;;;;;36.67;23.20;;;5.20;99.90;;;;;;10453422;28;20217;-63
2023/12/07 07:25:21;;;;;;;35.73;23.80;;;5.10;99.80;;;;;;10449066;28;20227;-63
2023/12/07 07:30:26;;;;;;;36.30;27.63;;;5.10;99.80;;;;;;10448902;28;20439;-63
2023/12/07 07:35:31;;;;;;;36.50;23.70;;;5.10;99.70;;;;;;10445764;28;20206;-64
2023/12/07 07:40:35;;;;;;;35.43;22.73;;;5.00;99.40;;;;;;10445730;28;20224;-64
2023/12/07 07:45:38;;;;;;;35.23;22.33;;;5.00;99.60;;;;;;10445680;28;20201;-63
2023/12/07 07:50:43;;;;;;;36.10;22.53;;;5.00;99.50;;;;;;10443330;28;20303;-65
2023/12/07 07:55:47;;;;;;;31.80;21.43;;;4.90;99.40;;;;;;10442141;28;21625;-66
2023/12/07 08:00:52;;;;;;;30.93;21.40;;;4.90;99.30;;;;;;10444554;28;20266;-65
2023/12/07 08:05:57;;;;;;;36.23;22.07;;;4.90;99.30;;;;;;10450127;28;20274;-66
2023/12/07 08:11:01;;;;;;;34.93;21.77;;;4.80;99.30;;;;;;10452443;28;20634;-66
2023/12/07 08:16:09;;;;;;;30.63;20.97;;;4.80;99.40;;;;;;10449912;28;20261;-65
2023/12/07 08:21:21;;;;;;;35.73;22.47;;;4.80;99.30;;;;;;10460113;28;20726;-63
2023/12/07 08:26:29;;;;;;;36.70;22.90;;;4.80;99.30;;;;;;10459092;28;20570;-65
2023/12/07 08:31:33;;;;;;;34.87;23.33;;;4.90;99.30;;;;;;10450151;28;20222;-65
2023/12/07 08:36:38;;;;;;;37.80;22.70;;;4.80;99.20;;;;;;10454943;28;20721;-64
2023/12/07 08:41:42;;;;;;;35.40;24.73;;;4.80;99.30;;;;;;10448665;28;20663;-63
2023/12/07 08:46:46;;;;;;;35.13;22.57;;;4.80;99.30;;;;;;10457588;28;20202;-65
2023/12/07 08:51:52;;;;;;;38.53;24.37;;;4.90;99.40;;;;;;10452632;28;20227;-64
2023/12/07 08:57:16;;;;;;;35.40;23.80;;;4.90;99.30;;;;;;10452645;28;20209;-64
2023/12/07 09:02:19;;;;;;;35.50;23.17;;;4.90;99.70;;;;;;10448628;28;20283;-62
2023/12/07 09:07:42;;;;;;;37.00;23.50;;;5.00;99.40;;;;;;10450916;28;20207;-60
2023/12/07 09:12:45;;;;;;;35.67;24.90;;;5.00;99.40;;;;;;10453408;28;20205;-61
2023/12/07 09:17:49;;;;;;;36.20;24.43;;;5.00;99.50;;;;;;10451100;28;20268;-62
2023/12/07 09:22:56;;;;;;;36.43;24.20;;;5.10;99.40;;;;;;10454656;28;20578;-62
2023/12/07 09:28:00;;;;;;;34.23;22.67;;;5.10;99.30;;;;;;10454094;28;20555;-61
2023/12/07 09:33:04;;;;;;;30.67;21.20;;;5.20;99.30;;;;;;10448723;28;20221;-60
2023/12/07 09:38:09;;;;;;;29.23;20.83;;;5.20;99.40;;;;;;10448612;28;20295;-61
2023/12/07 09:43:14;;;;;;;27.57;20.87;;;5.30;99.30;;;;;;10453566;28;20222;-61
2023/12/07 09:48:18;;;;;;;29.77;19.73;;;5.40;99.20;;;;;;10450387;28;20199;-61
2023/12/07 09:53:23;;;;;;;28.10;20.33;;;5.40;99.70;;;;;;10380945;28;20688;-62
2023/12/07 09:58:28;;;;;;;26.27;18.53;;;5.50;99.30;;;;;;10448881;28;20219;-62
2023/12/07 10:03:44;;;;;;;23.13;17.90;;;5.50;99.30;;;;;;10398674;28;20232;-62
2023/12/07 10:08:49;;;;;;;23.40;18.03;;;5.60;99.40;;;;;;10442222;28;20250;-62
2023/12/07 10:13:53;;;;;;;22.90;16.47;;;5.60;99.30;;;;;;10448116;28;20274;-64
2023/12/07 10:18:57;;;;;;;23.43;16.93;;;5.70;99.70;;;;;;10451450;28;20276;-65
2023/12/07 10:24:02;;;;;;;20.77;15.63;;;5.70;99.10;;;;;;10438215;28;20295;-65
2023/12/07 10:29:06;;;;;;;20.63;13.83;;;5.80;99.60;;;;;;10433994;28;20348;-66
2023/12/07 10:34:12;;;;;;;17.53;13.30;;;5.90;99.70;;;;;;10437805;28;20254;-64
2023/12/07 10:39:18;;;;;;;16.47;12.07;;;6.00;99.90;;;;;;10442831;28;20218;-64
2023/12/07 10:44:29;;;;;;;16.60;13.60;;;6.00;99.00;;;;;;10443908;28;20229;-65
2023/12/07 10:49:33;;;;;;;16.47;12.80;;;6.10;99.90;;;;;;10438835;28;20208;-64
2023/12/07 10:54:51;;;;;;;15.17;12.70;;;6.10;99.10;;;;;;10446636;28;20276;-67
2023/12/07 10:59:56;;;;;;;16.33;11.80;;;6.20;98.60;;;;;;10452252;28;20684;-64
2023/12/07 11:05:02;;;;;;;15.80;11.23;;;6.30;98.80;;;;;;10450026;28;20774;-63
2023/12/07 11:10:20;;;;;;;13.87;10.97;;;6.30;98.70;;;;;;10416915;28;20868;-64
2023/12/07 11:15:24;;;;;;;14.77;11.83;;;6.40;98.10;;;;;;10444519;28;20649;-65
2023/12/07 11:20:41;;;;;;;14.00;10.77;;;6.40;98.20;;;;;;10440561;28;20278;-66
2023/12/07 11:25:46;;;;;;;15.90;10.27;;;6.40;98.20;;;;;;10396199;28;20256;-64
2023/12/07 11:30:53;;;;;;;14.37;9.73;;;6.50;98.20;;;;;;10427606;28;20484;-64
2023/12/07 11:36:08;;;;;;;12.43;9.40;;;6.60;97.50;;;;;;10437001;28;20247;-64
2023/12/07 11:41:14;;;;;;;10.90;8.80;;;6.60;98.20;;;;;;10441558;28;20248;-65
2023/12/07 11:46:17;;;;;;;14.17;9.70;;;6.70;97.60;;;;;;10441975;28;20205;-65
2023/12/07 11:51:21;;;;;;;12.83;9.27;;;6.70;97.90;;;;;;10412874;28;20658;-66
2023/12/07 11:56:26;;;;;;;16.23;9.30;;;6.70;98.00;;;;;;10399077;28;20642;-66
2023/12/07 12:01:30;;;;;;;14.57;9.70;;;6.80;97.40;;;;;;10448546;28;20581;-67
2023/12/07 12:06:34;;;;;;;12.87;9.70;;;6.80;97.40;;;;;;10441878;28;20214;-67
2023/12/07 12:11:44;;;;;;;13.47;9.57;;;6.90;96.90;;;;;;10443699;28;20274;-66
2023/12/07 12:16:48;;;;;;;11.70;9.50;;;6.90;98.20;;;;;;10445330;28;20206;-66
2023/12/07 12:21:52;;;;;;;13.80;10.67;;;6.90;97.70;;;;;;10449502;28;20703;-66
2023/12/07 12:26:58;;;;;;;17.70;11.43;;;7.10;99.00;;;;;;10443963;28;20203;-69
2023/12/07 12:32:02;;;;;;;14.07;11.00;;;7.30;97.90;;;;;;10450249;28;20227;-70
2023/12/07 12:37:09;;;;;;;13.50;10.57;;;7.60;99.10;;;;;;10450432;28;20297;-70
2023/12/07 12:42:14;;;;;;;12.33;10.40;;;7.70;99.30;;;;;;10449333;28;20228;-67
2023/12/07 12:47:17;;;;;;;11.13;8.67;;;7.80;97.60;;;;;;10448531;28;20199;-66
2023/12/07 12:52:21;;;;;;;11.30;8.37;;;7.90;96.70;;;;;;10456098;28;20285;-66
2023/12/07 12:57:26;;;;;;;11.27;8.63;;;7.80;95.70;;;;;;10456040;28;20199;-65
2023/12/07 13:02:30;;;;;;;11.43;9.53;;;7.80;95.60;;;;;;10454373;28;20300;-66
2023/12/07 13:07:35;;;;;;;13.43;9.47;;;7.70;95.50;;;;;;10452979;28;20218;-67
2023/12/07 13:12:40;;;;;;;12.17;9.30;;;7.70;94.90;;;;;;10450341;28;20268;-67
2023/12/07 13:17:44;;;;;;;12.73;9.50;;;7.60;95.20;;;;;;10469062;28;20200;-68
2023/12/07 13:22:47;;;;;;;12.63;9.93;;;7.50;94.80;;;;;;10460762;28;20281;-67
2023/12/07 13:27:53;;;;;;;11.80;9.30;;;7.50;94.20;;;;;;10457636;28;20199;-69
2023/12/07 13:32:56;;;;;;;11.60;8.93;;;7.40;94.00;;;;;;10454223;28;20223;-69
2023/12/07 13:38:00;;;;;;;10.20;8.90;;;7.40;94.10;;;;;;10467071;28;20666;-68
2023/12/07 13:43:06;;;;;;;12.43;9.53;;;7.30;93.90;;;;;;10460979;28;20230;-69
2023/12/07 13:48:10;;;;;;;9.97;8.87;;;7.20;93.90;;;;;;10454627;28;20205;-68
2023/12/07 13:53:13;;;;;;;11.23;8.80;;;7.20;93.90;;;;;;10453950;28;20218;-67
2023/12/07 13:58:19;;;;;;;11.50;8.90;;;7.10;94.20;;;;;;10447039;28;20650;-65
2023/12/07 14:03:22;;;;;;;10.27;8.67;;;7.10;93.60;;;;;;10453542;28;20754;-62
2023/12/07 14:08:31;;;;;;;11.80;9.03;;;7.00;94.40;;;;;;10450970;28;20277;-62
2023/12/07 14:13:36;;;;;;;11.27;8.90;;;7.00;93.70;;;;;;10410718;28;20222;-64
2023/12/07 14:18:39;;;;;;;12.17;8.90;;;7.00;93.70;;;;;;10449073;28;20260;-63
2023/12/07 14:23:44;;;;;;;12.47;9.10;;;6.90;93.60;;;;;;10434714;28;20249;-64
2023/12/07 14:28:58;;;;;;;11.50;9.27;;;6.80;95.60;;;;;;10409982;28;20556;-66
2023/12/07 14:34:03;;;;;;;13.47;9.43;;;6.80;94.20;;;;;;10450868;28;20218;-67
2023/12/07 14:39:07;;;;;;;11.00;9.00;;;6.70;94.40;;;;;;10449434;28;20245;-69
2023/12/07 14:44:12;;;;;;;10.87;9.23;;;6.70;95.70;;;;;;10451030;28;20284;-67
2023/12/07 14:49:20;;;;;;;10.63;9.47;;;6.70;96.20;;;;;;10448831;28;20199;-67
2023/12/07 14:54:24;;;;;;;12.33;9.67;;;6.70;95.90;;;;;;10454698;28;20762;-68
2023/12/07 14:59:34;;;;;;;10.40;8.80;;;6.60;94.40;;;;;;10451626;28;20227;-68
2023/12/07 15:04:39;;;;;;;10.43;9.07;;;6.50;94.50;;;;;;10455293;28;20289;-68
2023/12/07 15:09:42;;;;;;;12.43;9.37;;;6.50;94.20;;;;;;10449966;28;20281;-64
2023/12/07 15:14:47;;;;;;;10.80;8.77;;;6.40;94.00;;;;;;10447857;28;20637;-64
2023/12/07 15:19:51;;;;;;;10.07;8.30;;;6.30;93.80;;;;;;10451441;28;20579;-63
2023/12/07 15:24:55;;;;;;;10.53;8.10;;;6.30;94.50;;;;;;10452170;28;20218;-63
2023/12/07 15:30:00;;;;;;;10.43;8.00;;;6.20;94.30;;;;;;10444653;28;20247;-63
2023/12/07 15:35:04;;;;;;;12.07;8.23;;;6.10;93.80;;;;;;10448976;28;20260;-63
2023/12/07 15:40:10;;;;;;;11.87;8.73;;;6.10;93.60;;;;;;10449102;28;20347;-64
2023/12/07 15:45:15;;;;;;;11.67;8.50;;;6.00;93.40;;;;;;10450198;28;20226;-63
2023/12/07 15:50:19;;;;;;;11.93;8.27;;;5.90;93.60;;;;;;10450098;28;20246;-64
2023/12/07 15:55:22;;;;;;;10.47;9.13;;;5.90;93.40;;;;;;10445446;28;20256;-64
2023/12/07 16:00:28;;;;;;;10.70;8.77;;;5.70;93.50;;;;;;10444878;28;20298;-63
2023/12/07 16:05:32;;;;;;;10.63;9.00;;;5.70;93.80;;;;;;10431882;28;20205;-62
2023/12/07 16:10:49;;;;;;;12.67;8.73;;;5.60;93.50;;;;;;10421108;28;20251;-64
2023/12/07 16:16:21;;;;;;;9.93;8.93;;;5.60;93.70;;;;;;10449145;28;20200;-66
2023/12/07 16:21:24;;;;;;;13.23;9.27;;;5.50;93.60;;;;;;10451918;28;20284;-66
2023/12/07 16:26:28;;;;;;;13.97;10.47;;;5.40;93.50;;;;;;10455867;28;20578;-67
2023/12/07 16:31:33;;;;;;;13.87;10.67;;;5.40;93.40;;;;;;10454771;28;20220;-69
2023/12/07 16:36:37;;;;;;;12.27;9.50;;;5.40;93.60;;;;;;10456695;28;20255;-69
2023/12/07 16:41:40;;;;;;;10.77;9.63;;;5.30;93.60;;;;;;10458034;28;20693;-67
2023/12/07 16:46:58;;;;;;;11.70;9.67;;;5.30;93.70;;;;;;10447929;28;20240;-68
2023/12/07 16:52:02;;;;;;;11.87;9.40;;;5.20;93.70;;;;;;10454850;28;20443;-67
2023/12/07 16:57:05;;;;;;;13.03;9.53;;;5.20;93.70;;;;;;10453679;28;20615;-66
2023/12/07 17:02:10;;;;;;;11.80;9.77;;;5.10;93.80;;;;;;10454792;28;20227;-67
2023/12/07 17:07:14;;;;;;;15.97;9.17;;;5.10;93.70;;;;;;10455023;28;20207;-66
2023/12/07 17:12:18;;;;;;;12.67;8.87;;;5.10;93.70;;;;;;10448463;28;20278;-64
2023/12/07 17:17:23;;;;;;;13.37;9.60;;;5.00;93.70;;;;;;10454026;28;20675;-65
2023/12/07 17:22:27;;;;;;;11.83;9.77;;;5.00;93.50;;;;;;10456740;28;20772;-66
2023/12/07 17:27:30;;;;;;;14.60;9.70;;;5.10;93.50;;;;;;10451113;28;20215;-66
2023/12/07 17:32:35;;;;;;;15.77;10.07;;;5.00;93.70;;;;;;10455405;28;20222;-66
2023/12/07 17:37:39;;;;;;;11.63;10.30;;;5.00;93.60;;;;;;10454080;28;20201;-66
2023/12/07 17:42:42;;;;;;;14.33;9.70;;;4.90;93.60;;;;;;10452163;28;20269;-67
2023/12/07 17:47:48;;;;;;;11.87;9.03;;;4.90;93.60;;;;;;10453275;28;20615;-65
2023/12/07 17:52:52;;;;;;;12.27;9.93;;;4.90;93.60;;;;;;10440475;28;20756;-65
2023/12/07 17:57:57;;;;;;;14.47;10.37;;;4.80;93.50;;;;;;10442214;28;20204;-67
2023/12/07 18:03:04;;;;;;;16.50;11.30;;;4.80;93.50;;;;;;10443852;28;20224;-67
2023/12/07 18:08:08;;;;;;;13.43;11.07;;;4.80;93.60;;;;;;10443667;28;20207;-65
2023/12/07 18:13:11;;;;;;;15.03;12.20;;;4.80;93.50;;;;;;10437925;28;20245;-67
2023/12/07 18:18:16;;;;;;;16.13;12.67;;;4.80;93.50;;;;;;10442797;28;20226;-67
2023/12/07 18:23:20;;;;;;;15.50;11.90;;;4.80;93.40;;;;;;10409747;28;20268;-68
2023/12/07 18:28:24;;;;;;;13.90;11.07;;;4.70;93.50;;;;;;10415157;28;20353;-65
2023/12/07 18:33:29;;;;;;;12.73;10.80;;;4.70;93.30;;;;;;10435443;28;20215;-65
2023/12/07 18:38:33;;;;;;;15.40;11.40;;;4.70;93.50;;;;;;10446446;28;20269;-65
2023/12/07 18:43:36;;;;;;;15.30;11.03;;;4.70;93.40;;;;;;10458647;28;20579;-65
2023/12/07 18:48:41;;;;;;;14.30;10.80;;;4.70;93.40;;;;;;10445484;28;20199;-65
2023/12/07 18:53:45;;;;;;;17.37;11.20;;;4.70;93.30;;;;;;10410785;28;20224;-64
2023/12/07 18:58:48;;;;;;;14.33;10.77;;;4.60;93.30;;;;;;10448639;28;20204;-64
2023/12/07 19:03:53;;;;;;;13.10;9.40;;;4.60;93.20;;;;;;10445184;28;20267;-63
2023/12/07 19:08:57;;;;;;;14.23;9.50;;;4.60;93.30;;;;;;10443320;28;20210;-64
2023/12/07 19:14:01;;;;;;;12.00;9.57;;;4.70;92.80;;;;;;10440793;28;20260;-64
2023/12/07 19:19:06;;;;;;;14.07;9.37;;;4.70;92.90;;;;;;10444146;28;20219;-63
2023/12/07 19:24:10;;;;;;;10.53;8.27;;;4.70;92.40;;;;;;10445563;28;20874;-65
2023/12/07 19:29:14;;;;;;;9.50;7.83;;;4.70;92.60;;;;;;10440912;28;20651;-63
2023/12/07 19:34:21;;;;;;;8.17;6.60;;;4.70;92.10;;;;;;10443285;28;20240;-63
2023/12/07 19:39:24;;;;;;;9.80;7.20;;;4.70;92.00;;;;;;10449350;28;20260;-63
2023/12/07 19:44:28;;;;;;;9.67;7.03;;;4.80;91.70;;;;;;10444745;28;20319;-65
2023/12/07 19:49:33;;;;;;;9.70;6.60;;;4.80;91.60;;;;;;10447959;28;20653;-62
2023/12/07 19:54:37;;;;;;;8.27;6.63;;;4.80;91.30;;;;;;10442268;28;20230;-63
2023/12/07 19:59:44;;;;;;;8.87;6.43;;;4.80;91.30;;;;;;10456460;28;20777;-63
2023/12/07 20:04:49;;;;;;;9.07;6.63;;;4.80;90.90;;;;;;10453457;28;20231;-66
2023/12/07 20:09:53;;;;;;;8.87;6.60;;;4.90;90.90;;;;;;10442464;28;20580;-64
2023/12/07 20:14:57;;;;;;;7.87;6.03;;;4.90;90.80;;;;;;10448489;28;20223;-63
2023/12/07 20:20:01;;;;;;;7.87;6.20;;;4.90;90.80;;;;;;10448374;28;20204;-63
2023/12/07 20:25:06;;;;;;;9.50;6.00;;;4.90;90.60;;;;;;10440418;28;20223;-64
2023/12/07 20:30:10;;;;;;;9.33;6.10;;;5.00;90.70;;;;;;10449502;28;20269;-64
2023/12/07 20:35:15;;;;;;;8.30;6.30;;;5.00;92.20;;;;;;10444961;28;20634;-62
2023/12/07 20:40:19;;;;;;;9.37;6.03;;;5.10;90.70;;;;;;10450735;28;20252;-65
2023/12/07 20:45:22;;;;;;;7.70;6.20;;;5.10;90.30;;;;;;10452186;28;20224;-65
2023/12/07 20:50:27;;;;;;;9.93;7.23;;;5.20;90.40;;;;;;10451436;28;20205;-63
2023/12/07 20:55:32;;;;;;;9.07;6.70;;;5.20;89.90;;;;;;10451500;28;20197;-64
2023/12/07 21:00:35;;;;;;;9.47;6.23;;;5.20;89.10;;;;;;10439646;28;20218;-64
2023/12/07 21:05:48;;;;;;;8.37;7.00;;;5.20;89.40;;;;;;10445028;28;20725;-66
2023/12/07 21:10:52;;;;;;;10.30;7.10;;;5.20;91.20;;;;;;10412609;28;20281;-66
2023/12/07 21:15:56;;;;;;;10.37;7.00;;;5.20;90.70;;;;;;10443929;28;20217;-67
2023/12/07 21:21:01;;;;;;;10.30;6.90;;;5.30;91.00;;;;;;10453726;28;20268;-65
2023/12/07 21:26:05;;;;;;;7.87;7.03;;;5.30;90.80;;;;;;10444694;28;20227;-66
2023/12/07 21:31:09;;;;;;;10.23;7.30;;;5.30;89.70;;;;;;10448084;28;20275;-65
2023/12/07 21:36:14;;;;;;;9.37;7.27;;;5.30;90.40;;;;;;10447074;28;20646;-64
2023/12/07 21:41:18;;;;;;;8.90;7.33;;;5.30;90.00;;;;;;10449746;28;20252;-66
2023/12/07 21:46:21;;;;;;;8.80;7.53;;;5.30;90.10;;;;;;10455054;28;20224;-66
2023/12/07 21:51:26;;;;;;;12.13;8.20;;;5.40;90.70;;;;;;10451831;28;20248;-65
2023/12/07 21:56:30;;;;;;;10.43;8.00;;;5.40;90.00;;;;;;10445747;28;20193;-64
2023/12/07 22:01:34;;;;;;;9.97;7.90;;;5.40;90.30;;;;;;10446765;28;20283;-65
2023/12/07 22:06:39;;;;;;;9.47;7.43;;;5.50;90.50;;;;;;10443080;28;20253;-66
2023/12/07 22:11:44;;;;;;;9.27;7.40;;;5.50;90.00;;;;;;10436415;28;20591;-65
2023/12/07 22:16:48;;;;;;;9.30;7.97;;;5.50;89.40;;;;;;10451857;28;20259;-64
2023/12/07 22:21:53;;;;;;;9.57;7.27;;;5.50;89.10;;;;;;10450739;28;20224;-65
2023/12/07 22:26:56;;;;;;;9.40;6.83;;;5.50;89.60;;;;;;10455729;28;20337;-66
2023/12/07 22:32:00;;;;;;;8.63;6.93;;;5.50;89.80;;;;;;10451060;28;20241;-65
2023/12/07 22:37:06;;;;;;;8.40;6.57;;;5.50;89.40;;;;;;10443584;28;20197;-65
2023/12/07 22:42:09;;;;;;;7.60;6.10;;;5.50;88.60;;;;;;10447139;28;20285;-65
2023/12/07 22:47:13;;;;;;;7.97;6.30;;;5.60;88.60;;;;;;10448459;28;20214;-64
2023/12/07 22:52:18;;;;;;;7.47;5.73;;;5.60;87.60;;;;;;10451355;28;20221;-64
2023/12/07 22:57:21;;;;;;;7.43;5.93;;;5.60;88.20;;;;;;10456078;28;20206;-64
2023/12/07 23:02:26;;;;;;;6.70;5.63;;;5.60;87.80;;;;;;10450968;28;20228;-65
2023/12/07 23:07:31;;;;;;;6.90;5.13;;;5.60;86.30;;;;;;10415245;28;20222;-64
2023/12/07 23:12:34;;;;;;;8.73;5.77;;;5.60;86.10;;;;;;10447674;28;20319;-64
2023/12/07 23:17:38;;;;;;;5.40;4.90;;;5.70;86.60;;;;;;10452222;28;20225;-62
2023/12/07 23:22:43;;;;;;;6.63;5.17;;;5.70;86.40;;;;;;10445445;28;20734;-64
2023/12/07 23:27:47;;;;;;;6.53;5.27;;;5.70;86.00;;;;;;10445605;28;20219;-63
2023/12/07 23:32:51;;;;;;;7.03;4.83;;;5.70;86.20;;;;;;10440042;28;20222;-63
2023/12/07 23:37:56;;;;;;;5.53;5.00;;;5.70;85.80;;;;;;10442644;28;20202;-63
2023/12/07 23:43:00;;;;;;;6.40;4.47;;;5.70;85.00;;;;;;10440613;28;20244;-63
2023/12/07 23:48:03;;;;;;;5.40;4.23;;;5.70;86.10;;;;;;10410565;28;20665;-63
2023/12/07 23:53:12;;;;;;;5.90;4.27;;;5.70;83.80;;;;;;10429710;28;20786;-64
2023/12/07 23:58:16;;;;;;;5.70;3.70;;;5.80;84.20;;;;;;10431808;28;20267;-64
